KFET/FET METAR and TAF weather

Enter ICAO airport designator
Station Type Date Time Source
KFET METAR 2021/04/18 01:55 UTC NOAA

KFET 180155Z AUTO 30006KT 10SM BKN085 09/02 A3009 RMK AO2 T00860024


Station Type Date Time Source
KFET Decoded METAR 2021/04/18 01:55 UTC NOAA

Fremont Municipal Airport, NE, United States (KFET) 41-27N 096-31W
Apr 17, 2021 - 09:55 PM EDT / 2021.04.18 0155 UTC
Wind: from the WNW (300 degrees) at 7 MPH (6 KT):0
Visibility: 10 mile(s):0
Sky conditions: mostly cloudy
Temperature: 47.5 F (8.6 C)
Dew Point: 36.3 F (2.4 C)
Relative Humidity: 64%
Pressure (altimeter): 30.09 in. Hg (1018 hPa)
ob: KFET 180155Z AUTO 30006KT 10SM BKN085 09/02 A3009 RMK AO2 T00860024
cycle: 2

Station Type Date Time Source
KFET TAF UTC NOAA

Error!

Example: see airport list